Hardinville, Illinois
Current Conditions -  °F | °C
As of 4:35 PM on Friday 19 Dec 2014 (Local Time) from KRSV Reporting Station
Clear Clear  
Wind Chill: 32°   Ceiling: Unl
Heat Index: 32°   Visibility: 10mi
Dew Point: 24°   Wind: 0mph
Humidity: 70%   Direction: NA
Pressure: 30.31"   Gusts: NA
Location:  39.0131°N, 87.7657°W
Report Text: KRSV 192235Z AUTO 00000KT 10SM CLR 00/M05 A3031 RMK AO2 T00021046
Loading
Personal Weather Stations






























Interactive Weather Map New forecast layout! Learn more

10-Day Weather Forecast

Advertisements
Track Severe Weather on mobile